Time;durP1;ratioP1;P1;durP2;ratioP2;P2;SDS_P1;SDS_P2;PMS_P1;PMS_P2;Temp;Humidity;BMP_temperature;BMP_pressure;BME280_temperature;BME280_humidity;BME280_pressure;Samples;Min_cycle;Max_cycle;Signal;HPM_P1;HPM_P2
2021/10/23 00:08:32;;;;;;;2.13;0.32;;;14.10;51.20;;;;;;20802680;28;80710;-71
2021/10/23 00:18:35;;;;;;;3.30;0.87;;;14.00;51.50;;;;;;20808379;28;80398;-71
2021/10/23 00:28:37;;;;;;;2.78;0.40;;;13.90;51.60;;;;;;20808942;28;80900;-72
2021/10/23 00:38:39;;;;;;;0.63;0.17;;;13.90;51.60;;;;;;20809698;28;80976;-71
2021/10/23 00:48:42;;;;;;;1.13;0.22;;;13.80;51.50;;;;;;20808061;28;80703;-70
2021/10/23 00:58:46;;;;;;;2.88;0.30;;;13.70;51.80;;;;;;20805170;28;81906;-71
2021/10/23 01:08:47;;;;;;;1.60;0.22;;;13.60;52.10;;;;;;20806335;28;81039;-71
2021/10/23 01:18:50;;;;;;;1.00;0.40;;;13.50;52.30;;;;;;20805135;28;79893;-72
2021/10/23 01:28:53;;;;;;;;;;;13.50;52.50;;;;;;20805957;28;82334;-72
2021/10/23 01:39:05;;;;;;;1.05;0.30;;;13.30;52.70;;;;;;20815552;28;80717;-71
2021/10/23 01:49:10;;;;;;;0.70;0.40;;;13.30;52.70;;;;;;20801254;28;80379;-71
2021/10/23 01:59:12;;;;;;;1.77;0.45;;;13.30;53.00;;;;;;20795641;28;81052;-73
2021/10/23 02:09:14;;;;;;;3.65;0.88;;;13.20;53.60;;;;;;20794754;28;81316;-71
2021/10/23 02:19:18;;;;;;;0.55;0.20;;;13.10;53.70;;;;;;20797157;28;80988;-72
2021/10/23 02:29:22;;;;;;;1.77;0.22;;;13.00;53.90;;;;;;20793488;28;81790;-72
2021/10/23 02:39:26;;;;;;;1.77;0.70;;;13.00;53.90;;;;;;20801071;28;81435;-71
2021/10/23 02:49:47;;;;;;;2.30;0.30;;;12.90;54.10;;;;;;20801083;28;83256;-71
2021/10/23 03:00:09;;;;;;;0.60;0.32;;;12.80;54.40;;;;;;20798620;28;83796;-71
2021/10/23 03:10:30;;;;;;;2.55;0.65;;;12.70;54.70;;;;;;20800581;28;83764;-71
2021/10/23 03:20:41;;;;;;;3.03;0.75;;;12.60;54.70;;;;;;20797107;28;81864;-72
2021/10/23 03:30:55;;;;;;;1.33;0.40;;;12.50;55.10;;;;;;20797994;28;82218;-72
2021/10/23 03:41:00;;;;;;;1.80;0.50;;;12.40;55.40;;;;;;20799928;28;81626;-72
2021/10/23 03:51:06;;;;;;;1.38;0.47;;;12.20;55.70;;;;;;20810829;28;80984;-72
2021/10/23 04:01:13;;;;;;;3.95;0.70;;;11.90;56.50;;;;;;20811121;28;80319;-72
2021/10/23 04:11:20;;;;;;;2.75;0.40;;;11.80;56.70;;;;;;20809305;28;81227;-71
2021/10/23 04:21:26;;;;;;;2.88;0.45;;;11.60;57.00;;;;;;20809417;28;80504;-71
2021/10/23 04:31:32;;;;;;;2.72;0.65;;;11.50;57.50;;;;;;20814769;28;80833;-70
2021/10/23 04:41:36;;;;;;;1.15;0.40;;;11.40;57.70;;;;;;20867169;27;80776;-71
2021/10/23 04:51:49;;;;;;;1.97;0.60;;;11.30;58.10;;;;;;20848554;28;82025;-71
2021/10/23 05:01:55;;;;;;;3.22;0.73;;;11.20;58.20;;;;;;20807487;28;81849;-71
2021/10/23 05:11:58;;;;;;;1.77;0.57;;;10.90;58.70;;;;;;20805782;28;80717;-70
2021/10/23 05:22:01;;;;;;;46.53;5.60;;;11.00;58.80;;;;;;20804745;28;81069;-72
2021/10/23 05:32:06;;;;;;;7.75;2.03;;;10.80;59.10;;;;;;20804951;28;79935;-72
2021/10/23 05:42:09;;;;;;;4.97;1.00;;;10.70;59.50;;;;;;20814703;28;80511;-70
2021/10/23 05:52:11;;;;;;;2.33;0.65;;;10.60;59.70;;;;;;20854470;28;81146;-71
2021/10/23 06:02:30;;;;;;;5.95;1.10;;;10.40;59.90;;;;;;20884748;27;80579;-71
2021/10/23 06:12:32;;;;;;;5.28;2.83;;;10.50;60.10;;;;;;20886396;27;80618;-71
2021/10/23 06:22:37;;;;;;;7.13;2.72;;;10.60;60.10;;;;;;20814675;28;82059;-73
2021/10/23 06:32:45;;;;;;;4.07;1.10;;;10.60;60.30;;;;;;20811216;28;81013;-71
2021/10/23 06:42:50;;;;;;;2.65;1.05;;;10.50;60.30;;;;;;20799948;28;81024;-63
2021/10/23 06:52:54;;;;;;;6.53;1.70;;;10.50;60.40;;;;;;20801202;28;80672;-63
2021/10/23 07:02:57;;;;;;;3.83;0.90;;;10.60;60.90;;;;;;20796019;28;80750;-73
2021/10/23 07:13:02;;;;;;;4.35;0.85;;;10.80;60.10;;;;;;20795424;28;81147;-72
2021/10/23 07:23:05;;;;;;;3.17;0.77;;;11.10;59.20;;;;;;20798018;28;81729;-73
2021/10/23 07:33:10;;;;;;;3.10;0.77;;;11.40;58.20;;;;;;20871184;28;82200;-75
2021/10/23 07:43:13;;;;;;;4.72;0.80;;;11.70;56.70;;;;;;20883225;27;81881;-72
2021/10/23 07:53:17;;;;;;;2.50;0.88;;;12.00;55.70;;;;;;20883929;28;80704;-79
2021/10/23 08:03:23;;;;;;;5.63;1.20;;;12.50;54.30;;;;;;20881704;28;81867;-76
2021/10/23 08:13:29;;;;;;;4.43;1.30;;;12.80;53.10;;;;;;20880801;28;80079;-74
2021/10/23 08:23:31;;;;;;;6.97;1.17;;;13.20;52.30;;;;;;20880765;27;80719;-74
2021/10/23 08:33:34;;;;;;;4.22;1.30;;;13.80;51.00;;;;;;20896660;27;80569;-73
2021/10/23 08:43:37;;;;;;;2.63;0.98;;;14.10;50.30;;;;;;20892576;28;80690;-69
2021/10/23 08:53:40;;;;;;;;;;;14.20;50.10;;;;;;20895957;27;80730;-76
2021/10/23 09:03:44;;;;;;;2.95;1.00;;;14.40;49.90;;;;;;20914367;28;81028;-76
2021/10/23 09:13:46;;;;;;;3.08;1.20;;;14.90;48.90;;;;;;20893295;27;79841;-75
2021/10/23 09:23:51;;;;;;;6.13;1.55;;;15.40;47.90;;;;;;20890113;27;80718;-73
2021/10/23 09:33:59;;;;;;;5.03;1.48;;;15.80;47.40;;;;;;20886819;28;82096;-73
2021/10/23 09:44:17;;;;;;;4.30;1.67;;;16.40;46.00;;;;;;20881776;28;81938;-73
2021/10/23 09:54:28;;;;;;;7.43;1.20;;;17.60;44.10;;;;;;20872774;28;81930;-74
2021/10/23 10:04:31;;;;;;;;;;;22.90;33.80;;;;;;20886888;28;80728;-71
2021/10/23 10:14:35;;;;;;;3.05;1.17;;;26.50;30.40;;;;;;20905765;28;81819;-72
2021/10/23 10:24:39;;;;;;;4.65;0.98;;;29.00;25.90;;;;;;20833385;27;80356;-71
2021/10/23 10:45:34;;;;;;;2.28;0.70;;;33.90;21.10;;;;;;20801258;28;81903;-72
2021/10/23 10:55:41;;;;;;;3.03;0.70;;;35.80;19.70;;;;;;20809562;28;80856;-74
2021/10/23 11:05:44;;;;;;;4.25;1.60;;;38.40;17.20;;;;;;20827732;28;81778;-76
2021/10/23 11:15:46;;;;;;;2.63;1.30;;;39.00;16.70;;;;;;20795506;28;80705;-75
2021/10/23 11:25:50;;;;;;;4.35;1.00;;;40.40;15.80;;;;;;20790460;28;81035;-74
2021/10/23 11:35:52;;;;;;;2.70;0.75;;;41.60;15.00;;;;;;20797107;28;81814;-75
2021/10/23 11:45:54;;;;;;;1.58;0.47;;;36.00;18.80;;;;;;20797179;28;81786;-73
2021/10/23 11:56:06;;;;;;;1.55;0.55;;;34.70;19.70;;;;;;20796782;28;81925;-75
2021/10/23 12:06:19;;;;;;;1.92;0.65;;;33.40;20.90;;;;;;20806796;28;81176;-75
2021/10/23 12:16:32;;;;;;;6.28;0.80;;;35.80;18.40;;;;;;20809652;28;80780;-74
2021/10/23 12:26:36;;;;;;;1.25;0.40;;;38.10;16.40;;;;;;20810068;28;81262;-74
2021/10/23 12:36:53;;;;;;;8.07;1.02;;;36.50;17.60;;;;;;20810986;28;82075;-73
2021/10/23 12:46:56;;;;;;;2.15;0.90;;;37.10;17.10;;;;;;20809113;28;80762;-73
2021/10/23 12:56:59;;;;;;;2.47;0.35;;;33.60;20.10;;;;;;20807270;28;81767;-74
2021/10/23 13:07:02;;;;;;;1.73;0.65;;;35.40;18.10;;;;;;20849304;28;80932;-72
2021/10/23 13:17:04;;;;;;;2.90;0.85;;;37.60;16.60;;;;;;20826499;28;80532;-70
2021/10/23 13:27:08;;;;;;;4.50;0.82;;;37.30;16.90;;;;;;20807397;28;80684;-71
2021/10/23 13:37:12;;;;;;;1.67;0.88;;;33.20;19.80;;;;;;20888019;28;80738;-70
2021/10/23 13:47:13;;;;;;;2.67;1.08;;;34.90;18.80;;;;;;20848589;28;82062;-69
2021/10/23 13:57:15;;;;;;;5.70;0.95;;;37.20;16.80;;;;;;20805217;28;81839;-77
2021/10/23 14:07:17;;;;;;;2.95;0.80;;;40.90;14.30;;;;;;20804124;28;81001;-77
2021/10/23 14:17:19;;;;;;;1.25;0.35;;;35.10;18.00;;;;;;20820666;28;79967;-73
2021/10/23 14:27:27;;;;;;;2.10;0.50;;;32.20;19.70;;;;;;20877003;27;80931;-76
2021/10/23 14:37:30;;;;;;;1.30;0.40;;;33.60;18.40;;;;;;20868452;28;80142;-71
2021/10/23 14:47:32;;;;;;;1.45;0.80;;;37.90;15.50;;;;;;20881959;28;80809;-76
2021/10/23 14:57:34;;;;;;;2.10;1.08;;;35.70;16.90;;;;;;20883754;27;80750;-73
2021/10/23 15:07:37;;;;;;;2.85;0.68;;;35.40;17.10;;;;;;20886052;27;80773;-76
2021/10/23 15:17:40;;;;;;;2.53;0.82;;;33.50;18.50;;;;;;20884926;27;82209;-74
2021/10/23 15:27:43;;;;;;;11.65;0.90;;;31.00;21.00;;;;;;20882204;28;79777;-74
2021/10/23 15:37:45;;;;;;;0.80;0.47;;;27.00;23.80;;;;;;20886169;27;80863;-73
2021/10/23 15:47:49;;;;;;;1.35;0.60;;;25.30;25.50;;;;;;20865091;27;79964;-74
2021/10/23 15:57:52;;;;;;;4.50;0.50;;;24.30;26.60;;;;;;20885427;28;80461;-77
2021/10/23 16:07:54;;;;;;;3.33;0.82;;;23.50;26.90;;;;;;20858498;27;81694;-76
2021/10/23 16:17:56;;;;;;;1.63;0.43;;;22.90;27.60;;;;;;20813280;28;81696;-73
2021/10/23 16:27:58;;;;;;;1.90;0.60;;;22.60;29.00;;;;;;20882724;28;81829;-73
2021/10/23 16:38:00;;;;;;;2.72;0.38;;;22.10;28.70;;;;;;20838707;27;80657;-74
2021/10/23 16:48:02;;;;;;;2.75;0.68;;;21.70;29.10;;;;;;20813407;27;81967;-73
2021/10/23 16:58:04;;;;;;;2.10;0.45;;;21.30;29.90;;;;;;20831101;28;81815;-75
2021/10/23 17:08:06;;;;;;;4.20;0.60;;;20.90;30.60;;;;;;20807668;28;81003;-71
2021/10/23 17:18:09;;;;;;;6.10;1.48;;;20.50;32.50;;;;;;20809739;28;80053;-72
2021/10/23 17:28:11;;;;;;;7.77;2.50;;;20.10;32.90;;;;;;20807829;28;80782;-70
2021/10/23 17:38:13;;;;;;;7.93;2.15;;;19.80;33.80;;;;;;20807851;28;80449;-71
2021/10/23 17:48:15;;;;;;;5.93;1.87;;;19.30;35.00;;;;;;20809980;28;82259;-72
2021/10/23 17:58:17;;;;;;;9.50;2.70;;;19.00;35.60;;;;;;20813046;28;81824;-69
2021/10/23 18:08:22;;;;;;;6.73;2.50;;;18.70;36.60;;;;;;20803884;28;80759;-70
2021/10/23 18:18:24;;;;;;;10.95;3.92;;;18.50;37.00;;;;;;20803913;28;80612;-68
2021/10/23 18:28:26;;;;;;;10.27;3.13;;;18.30;37.90;;;;;;20822049;28;81989;-70
2021/10/23 18:38:28;;;;;;;;;;;18.00;38.40;;;;;;20803720;28;82061;-70
2021/10/23 18:48:30;;;;;;;7.90;2.78;;;17.70;38.90;;;;;;20833995;28;80494;-71
2021/10/23 18:58:32;;;;;;;10.77;3.27;;;17.60;39.60;;;;;;20799650;28;79978;-72
2021/10/23 19:08:34;;;;;;;6.73;3.53;;;17.40;40.50;;;;;;20799861;28;81881;-73
2021/10/23 19:18:36;;;;;;;12.57;4.70;;;17.20;41.20;;;;;;20797290;28;82131;-69
2021/10/23 19:28:38;;;;;;;11.82;3.97;;;17.00;41.60;;;;;;20797733;28;80094;-69
2021/10/23 19:38:40;;;;;;;12.80;3.67;;;16.90;41.90;;;;;;20820972;27;81301;-71
2021/10/23 19:48:45;;;;;;;11.15;4.65;;;16.70;42.30;;;;;;20883366;27;79962;-70
2021/10/23 19:58:48;;;;;;;18.75;7.43;;;16.50;42.90;;;;;;20869468;28;81304;-71
2021/10/23 20:08:50;;;;;;;11.17;4.40;;;16.40;43.60;;;;;;20813269;28;82009;-72
2021/10/23 20:18:52;;;;;;;12.00;5.60;;;16.20;44.20;;;;;;20807662;28;81980;-71
2021/10/23 20:28:54;;;;;;;14.80;5.60;;;16.00;45.20;;;;;;20864933;28;81850;-72
2021/10/23 20:38:56;;;;;;;12.25;5.18;;;15.90;45.30;;;;;;20853065;28;82019;-71
2021/10/23 20:48:58;;;;;;;13.32;4.00;;;15.70;45.20;;;;;;20855168;28;81668;-72
2021/10/23 20:59:00;;;;;;;11.70;3.33;;;15.60;45.20;;;;;;20808778;28;82161;-72
2021/10/23 21:09:02;;;;;;;9.20;3.55;;;15.30;45.60;;;;;;20840531;27;82242;-71
2021/10/23 21:19:06;;;;;;;9.60;3.50;;;15.10;46.20;;;;;;20808481;28;81612;-72
2021/10/23 21:29:08;;;;;;;;;;;15.00;46.50;;;;;;20807536;28;82009;-71
2021/10/23 21:39:10;;;;;;;7.63;2.53;;;14.70;46.40;;;;;;20853487;28;80535;-70
2021/10/23 21:49:12;;;;;;;5.38;2.15;;;14.40;46.40;;;;;;20889056;27;79843;-70
2021/10/23 21:59:14;;;;;;;10.18;2.30;;;14.30;46.50;;;;;;20889040;27;80561;-69
2021/10/23 22:09:16;;;;;;;13.02;2.20;;;14.00;47.00;;;;;;20887466;27;82005;-69
2021/10/23 22:19:20;;;;;;;7.07;2.42;;;13.70;47.80;;;;;;20886419;28;81575;-71
2021/10/23 22:29:23;;;;;;;4.53;1.48;;;13.60;48.30;;;;;;20886537;27;81076;-71
2021/10/23 22:39:26;;;;;;;6.33;1.40;;;13.30;48.80;;;;;;20886398;27;81143;-71
2021/10/23 22:49:27;;;;;;;4.47;1.35;;;13.10;49.30;;;;;;20885150;27;81616;-72
2021/10/23 22:59:39;;;;;;;4.97;1.55;;;13.00;49.10;;;;;;20883301;27;80290;-72
2021/10/23 23:09:42;;;;;;;6.57;1.73;;;12.80;49.80;;;;;;20883004;28;80921;-72
2021/10/23 23:19:44;;;;;;;6.43;1.90;;;12.80;49.80;;;;;;20883805;27;80038;-72
2021/10/23 23:29:47;;;;;;;7.07;1.60;;;12.70;49.90;;;;;;20883444;27;81119;-70
2021/10/23 23:39:50;;;;;;;7.33;1.60;;;12.50;50.30;;;;;;20882796;28;82974;-70
2021/10/23 23:49:53;;;;;;;3.45;1.58;;;12.40;50.60;;;;;;20843749;27;81036;-69
